Terminal Aerodrome Forecast
Issued by NWS

Home | Current Version | Previous Version | Graphics & Text | Print | Product List | Glossary On
Versions: 1 2 3 4 5 6 7 8 9 10 11 12 13 14 15 16 17 18 19 20 21 22 23
000
FTUS41 KCLE 180243 AAA
TAFFDY
TAF AMD
KFDY 180243Z 1803/1824 18012G20KT P6SM VCSH OVC100 WS020/19040KT
     FM180600 20014G22KT 6SM -SHRA BR VCTS OVC020CB WS020/20045KT
      TEMPO 1806/1808 3SM -TSRA BR OVC007CB
     FM180800 20014G22KT 5SM -SHRA BR VCTS OVC007CB WS020/21045KT
      TEMPO 1808/1812 2SM -TSRA BR
     FM181200 20015G25KT 4SM SHRA BR VCTS OVC003CB
      TEMPO 1812/1816 1SM TSRA
     FM181800 22020G30KT 2SM SHRA BR VCTS OVC003CB
     FM182200 30020G35KT 4SM -SHRA BR OVC007=

USA.gov is the U.S. government's official web portal to all federal, state and local government web resources and services.